sensor_id;sensor_type;location;lat;lon;timestamp;P1;durP1;ratioP1;P2;durP2;ratioP2
19848;SDS011;10085;51.120;6.956;2022-07-06T00:02:52;7.32;;;2.30;;
19848;SDS011;10085;51.120;6.956;2022-07-06T00:07:55;7.85;;;2.50;;
19848;SDS011;10085;51.120;6.956;2022-07-06T00:12:58;7.35;;;2.55;;
19848;SDS011;10085;51.120;6.956;2022-07-06T00:18:02;6.43;;;2.80;;
19848;SDS011;10085;51.120;6.956;2022-07-06T00:23:05;10.73;;;2.70;;
19848;SDS011;10085;51.120;6.956;2022-07-06T00:28:08;10.05;;;2.83;;
19848;SDS011;10085;51.120;6.956;2022-07-06T00:33:12;6.68;;;2.92;;
19848;SDS011;10085;51.120;6.956;2022-07-06T00:38:15;5.28;;;2.72;;
19848;SDS011;10085;51.120;6.956;2022-07-06T00:43:18;6.90;;;3.13;;
19848;SDS011;10085;51.120;6.956;2022-07-06T00:48:23;4.13;;;2.60;;
19848;SDS011;10085;51.120;6.956;2022-07-06T00:53:25;4.20;;;2.55;;
19848;SDS011;10085;51.120;6.956;2022-07-06T00:58:28;7.13;;;3.05;;
19848;SDS011;10085;51.120;6.956;2022-07-06T01:03:33;12.15;;;3.15;;
19848;SDS011;10085;51.120;6.956;2022-07-06T01:08:36;9.25;;;3.30;;
19848;SDS011;10085;51.120;6.956;2022-07-06T01:13:38;7.35;;;3.20;;
19848;SDS011;10085;51.120;6.956;2022-07-06T01:18:44;8.35;;;2.88;;
19848;SDS011;10085;51.120;6.956;2022-07-06T01:23:48;6.53;;;2.83;;
19848;SDS011;10085;51.120;6.956;2022-07-06T01:28:51;5.03;;;2.92;;
19848;SDS011;10085;51.120;6.956;2022-07-06T01:33:55;8.77;;;2.95;;
19848;SDS011;10085;51.120;6.956;2022-07-06T01:38:59;4.30;;;2.72;;
19848;SDS011;10085;51.120;6.956;2022-07-06T01:44:03;8.70;;;3.40;;
19848;SDS011;10085;51.120;6.956;2022-07-06T01:49:07;5.30;;;3.17;;
19848;SDS011;10085;51.120;6.956;2022-07-06T01:54:11;7.00;;;3.13;;
19848;SDS011;10085;51.120;6.956;2022-07-06T01:59:15;10.32;;;3.60;;
19848;SDS011;10085;51.120;6.956;2022-07-06T02:04:18;8.88;;;3.22;;
19848;SDS011;10085;51.120;6.956;2022-07-06T02:09:22;6.10;;;2.88;;
19848;SDS011;10085;51.120;6.956;2022-07-06T02:14:26;7.78;;;3.00;;
19848;SDS011;10085;51.120;6.956;2022-07-06T02:19:29;6.40;;;2.53;;
19848;SDS011;10085;51.120;6.956;2022-07-06T02:24:33;5.20;;;2.80;;
19848;SDS011;10085;51.120;6.956;2022-07-06T02:29:36;7.25;;;2.80;;
19848;SDS011;10085;51.120;6.956;2022-07-06T02:34:40;7.00;;;2.95;;
19848;SDS011;10085;51.120;6.956;2022-07-06T02:39:44;4.07;;;2.28;;
19848;SDS011;10085;51.120;6.956;2022-07-06T02:44:47;7.63;;;2.53;;
19848;SDS011;10085;51.120;6.956;2022-07-06T02:49:50;5.03;;;2.45;;
19848;SDS011;10085;51.120;6.956;2022-07-06T02:54:56;4.13;;;2.40;;
19848;SDS011;10085;51.120;6.956;2022-07-06T03:00:00;4.20;;;2.40;;
19848;SDS011;10085;51.120;6.956;2022-07-06T03:05:05;7.97;;;2.95;;
19848;SDS011;10085;51.120;6.956;2022-07-06T03:10:10;7.85;;;2.58;;
19848;SDS011;10085;51.120;6.956;2022-07-06T03:15:13;6.07;;;2.70;;
19848;SDS011;10085;51.120;6.956;2022-07-06T03:20:19;7.53;;;3.15;;
19848;SDS011;10085;51.120;6.956;2022-07-06T03:25:23;8.48;;;2.85;;
19848;SDS011;10085;51.120;6.956;2022-07-06T03:30:27;10.18;;;2.97;;
19848;SDS011;10085;51.120;6.956;2022-07-06T03:35:31;9.77;;;3.10;;
19848;SDS011;10085;51.120;6.956;2022-07-06T03:40:38;7.18;;;3.03;;
19848;SDS011;10085;51.120;6.956;2022-07-06T03:45:41;5.60;;;2.83;;
19848;SDS011;10085;51.120;6.956;2022-07-06T03:50:44;5.32;;;2.53;;
19848;SDS011;10085;51.120;6.956;2022-07-06T03:55:49;6.22;;;2.88;;
19848;SDS011;10085;51.120;6.956;2022-07-06T04:01:05;6.03;;;2.75;;
19848;SDS011;10085;51.120;6.956;2022-07-06T04:06:09;9.48;;;3.65;;
19848;SDS011;10085;51.120;6.956;2022-07-06T04:11:13;4.97;;;2.97;;
19848;SDS011;10085;51.120;6.956;2022-07-06T04:16:16;6.88;;;2.95;;
19848;SDS011;10085;51.120;6.956;2022-07-06T04:21:19;9.95;;;3.78;;
19848;SDS011;10085;51.120;6.956;2022-07-06T04:26:23;12.43;;;4.97;;
19848;SDS011;10085;51.120;6.956;2022-07-06T04:31:27;10.75;;;4.00;;
19848;SDS011;10085;51.120;6.956;2022-07-06T04:36:30;9.45;;;3.70;;
19848;SDS011;10085;51.120;6.956;2022-07-06T04:41:35;9.50;;;4.15;;
19848;SDS011;10085;51.120;6.956;2022-07-06T04:46:38;9.45;;;3.78;;
19848;SDS011;10085;51.120;6.956;2022-07-06T04:51:41;10.73;;;3.75;;
19848;SDS011;10085;51.120;6.956;2022-07-06T04:56:45;8.48;;;3.80;;
19848;SDS011;10085;51.120;6.956;2022-07-06T05:01:49;7.20;;;3.67;;
19848;SDS011;10085;51.120;6.956;2022-07-06T05:06:52;8.45;;;3.63;;
19848;SDS011;10085;51.120;6.956;2022-07-06T05:11:56;8.32;;;3.47;;
19848;SDS011;10085;51.120;6.956;2022-07-06T05:16:59;11.30;;;3.70;;
19848;SDS011;10085;51.120;6.956;2022-07-06T05:22:02;7.68;;;3.88;;
19848;SDS011;10085;51.120;6.956;2022-07-06T05:27:08;11.93;;;4.05;;
19848;SDS011;10085;51.120;6.956;2022-07-06T05:32:11;7.32;;;3.33;;
19848;SDS011;10085;51.120;6.956;2022-07-06T05:37:14;9.57;;;4.28;;
19848;SDS011;10085;51.120;6.956;2022-07-06T05:42:18;8.45;;;3.65;;
19848;SDS011;10085;51.120;6.956;2022-07-06T05:47:22;10.95;;;4.38;;
19848;SDS011;10085;51.120;6.956;2022-07-06T05:52:43;9.90;;;3.70;;
19848;SDS011;10085;51.120;6.956;2022-07-06T05:57:49;8.82;;;3.65;;
19848;SDS011;10085;51.120;6.956;2022-07-06T06:02:55;10.32;;;3.40;;
19848;SDS011;10085;51.120;6.956;2022-07-06T06:07:59;10.82;;;3.38;;
19848;SDS011;10085;51.120;6.956;2022-07-06T06:13:04;48.15;;;8.77;;
19848;SDS011;10085;51.120;6.956;2022-07-06T06:18:08;111.28;;;14.85;;
19848;SDS011;10085;51.120;6.956;2022-07-06T06:23:11;11.07;;;3.50;;
19848;SDS011;10085;51.120;6.956;2022-07-06T06:28:16;6.85;;;2.95;;
19848;SDS011;10085;51.120;6.956;2022-07-06T06:33:19;9.02;;;3.35;;
19848;SDS011;10085;51.120;6.956;2022-07-06T06:38:22;8.00;;;3.40;;
19848;SDS011;10085;51.120;6.956;2022-07-06T06:43:30;4.97;;;2.72;;
19848;SDS011;10085;51.120;6.956;2022-07-06T06:48:47;6.82;;;2.63;;
19848;SDS011;10085;51.120;6.956;2022-07-06T06:53:49;10.73;;;2.50;;
19848;SDS011;10085;51.120;6.956;2022-07-06T06:58:54;6.63;;;2.33;;
19848;SDS011;10085;51.120;6.956;2022-07-06T07:04:16;3.80;;;2.10;;
19848;SDS011;10085;51.120;6.956;2022-07-06T07:09:19;5.40;;;1.92;;
19848;SDS011;10085;51.120;6.956;2022-07-06T07:14:23;9.60;;;2.17;;
19848;SDS011;10085;51.120;6.956;2022-07-06T07:19:26;3.58;;;1.90;;
19848;SDS011;10085;51.120;6.956;2022-07-06T07:24:29;4.25;;;1.55;;
19848;SDS011;10085;51.120;6.956;2022-07-06T07:29:33;3.05;;;1.35;;
19848;SDS011;10085;51.120;6.956;2022-07-06T07:34:36;2.20;;;1.50;;
19848;SDS011;10085;51.120;6.956;2022-07-06T07:39:38;5.00;;;1.60;;
19848;SDS011;10085;51.120;6.956;2022-07-06T07:44:42;6.43;;;1.70;;
19848;SDS011;10085;51.120;6.956;2022-07-06T07:49:45;5.25;;;1.60;;
19848;SDS011;10085;51.120;6.956;2022-07-06T07:54:48;3.17;;;1.30;;
19848;SDS011;10085;51.120;6.956;2022-07-06T08:00:13;6.65;;;2.33;;
19848;SDS011;10085;51.120;6.956;2022-07-06T08:05:16;2.13;;;1.50;;
19848;SDS011;10085;51.120;6.956;2022-07-06T08:10:19;2.85;;;1.40;;
19848;SDS011;10085;51.120;6.956;2022-07-06T08:15:24;4.22;;;1.30;;
19848;SDS011;10085;51.120;6.956;2022-07-06T08:20:27;5.18;;;1.33;;
19848;SDS011;10085;51.120;6.956;2022-07-06T08:25:30;2.60;;;1.30;;
19848;SDS011;10085;51.120;6.956;2022-07-06T08:30:35;3.83;;;1.23;;
19848;SDS011;10085;51.120;6.956;2022-07-06T08:35:38;3.67;;;1.75;;
19848;SDS011;10085;51.120;6.956;2022-07-06T08:40:40;2.78;;;1.30;;
19848;SDS011;10085;51.120;6.956;2022-07-06T08:45:47;4.63;;;1.50;;
19848;SDS011;10085;51.120;6.956;2022-07-06T08:50:52;2.33;;;1.27;;
19848;SDS011;10085;51.120;6.956;2022-07-06T08:55:55;1.75;;;1.20;;
19848;SDS011;10085;51.120;6.956;2022-07-06T09:01:00;2.33;;;1.30;;
19848;SDS011;10085;51.120;6.956;2022-07-06T09:06:03;2.60;;;1.27;;
19848;SDS011;10085;51.120;6.956;2022-07-06T09:11:06;5.22;;;1.30;;
19848;SDS011;10085;51.120;6.956;2022-07-06T09:16:11;2.42;;;1.20;;
19848;SDS011;10085;51.120;6.956;2022-07-06T09:21:35;2.50;;;1.00;;
19848;SDS011;10085;51.120;6.956;2022-07-06T09:26:39;2.25;;;1.50;;
19848;SDS011;10085;51.120;6.956;2022-07-06T09:31:45;3.75;;;1.10;;
19848;SDS011;10085;51.120;6.956;2022-07-06T09:36:58;3.00;;;0.90;;
19848;SDS011;10085;51.120;6.956;2022-07-06T09:42:05;1.50;;;1.10;;
19848;SDS011;10085;51.120;6.956;2022-07-06T09:47:11;1.63;;;1.00;;
19848;SDS011;10085;51.120;6.956;2022-07-06T09:52:15;2.53;;;0.95;;
19848;SDS011;10085;51.120;6.956;2022-07-06T09:57:18;1.33;;;0.90;;
19848;SDS011;10085;51.120;6.956;2022-07-06T10:02:24;0.98;;;0.90;;
19848;SDS011;10085;51.120;6.956;2022-07-06T10:07:28;1.17;;;1.08;;
19848;SDS011;10085;51.120;6.956;2022-07-06T10:12:31;1.42;;;1.08;;
19848;SDS011;10085;51.120;6.956;2022-07-06T10:17:35;1.35;;;1.23;;
19848;SDS011;10085;51.120;6.956;2022-07-06T10:22:39;1.98;;;1.25;;
19848;SDS011;10085;51.120;6.956;2022-07-06T10:27:42;1.23;;;1.13;;
19848;SDS011;10085;51.120;6.956;2022-07-06T10:32:48;2.45;;;1.20;;
19848;SDS011;10085;51.120;6.956;2022-07-06T10:38:02;2.35;;;1.45;;
19848;SDS011;10085;51.120;6.956;2022-07-06T10:43:08;2.28;;;1.30;;
19848;SDS011;10085;51.120;6.956;2022-07-06T10:48:19;2.30;;;1.42;;
19848;SDS011;10085;51.120;6.956;2022-07-06T10:53:25;1.50;;;1.25;;
19848;SDS011;10085;51.120;6.956;2022-07-06T10:58:35;1.73;;;1.30;;
19848;SDS011;10085;51.120;6.956;2022-07-06T11:03:40;3.38;;;1.30;;
19848;SDS011;10085;51.120;6.956;2022-07-06T11:14:06;3.25;;;1.30;;
19848;SDS011;10085;51.120;6.956;2022-07-06T11:19:11;2.58;;;1.50;;
19848;SDS011;10085;51.120;6.956;2022-07-06T11:24:18;3.28;;;1.80;;
19848;SDS011;10085;51.120;6.956;2022-07-06T11:29:23;2.10;;;1.60;;
19848;SDS011;10085;51.120;6.956;2022-07-06T11:34:28;3.28;;;2.13;;
19848;SDS011;10085;51.120;6.956;2022-07-06T11:39:32;2.22;;;2.03;;
19848;SDS011;10085;51.120;6.956;2022-07-06T11:44:36;3.10;;;2.00;;
19848;SDS011;10085;51.120;6.956;2022-07-06T11:49:41;4.22;;;2.03;;
19848;SDS011;10085;51.120;6.956;2022-07-06T11:54:46;2.85;;;2.10;;
19848;SDS011;10085;51.120;6.956;2022-07-06T11:59:49;6.32;;;2.10;;
19848;SDS011;10085;51.120;6.956;2022-07-06T12:04:55;4.30;;;1.92;;
19848;SDS011;10085;51.120;6.956;2022-07-06T12:09:58;3.97;;;2.10;;
19848;SDS011;10085;51.120;6.956;2022-07-06T12:15:01;2.45;;;1.90;;
19848;SDS011;10085;51.120;6.956;2022-07-06T12:20:06;3.50;;;1.85;;
19848;SDS011;10085;51.120;6.956;2022-07-06T12:25:09;3.75;;;1.90;;
19848;SDS011;10085;51.120;6.956;2022-07-06T12:30:12;3.05;;;2.00;;
19848;SDS011;10085;51.120;6.956;2022-07-06T12:35:24;3.40;;;1.67;;
19848;SDS011;10085;51.120;6.956;2022-07-06T12:40:27;3.15;;;1.65;;
19848;SDS011;10085;51.120;6.956;2022-07-06T12:45:32;3.67;;;1.50;;
19848;SDS011;10085;51.120;6.956;2022-07-06T12:50:37;1.80;;;1.67;;
19848;SDS011;10085;51.120;6.956;2022-07-06T12:55:41;6.90;;;1.77;;
19848;SDS011;10085;51.120;6.956;2022-07-06T13:00:44;1.92;;;1.70;;
19848;SDS011;10085;51.120;6.956;2022-07-06T13:05:50;2.05;;;1.60;;
19848;SDS011;10085;51.120;6.956;2022-07-06T13:10:53;3.90;;;1.50;;
19848;SDS011;10085;51.120;6.956;2022-07-06T13:15:56;2.22;;;1.42;;
19848;SDS011;10085;51.120;6.956;2022-07-06T13:21:00;3.63;;;1.40;;
19848;SDS011;10085;51.120;6.956;2022-07-06T13:26:03;2.33;;;1.38;;
19848;SDS011;10085;51.120;6.956;2022-07-06T13:31:05;2.00;;;1.20;;
19848;SDS011;10085;51.120;6.956;2022-07-06T13:36:14;1.90;;;1.40;;
19848;SDS011;10085;51.120;6.956;2022-07-06T13:41:18;2.50;;;1.20;;
19848;SDS011;10085;51.120;6.956;2022-07-06T13:46:20;2.15;;;1.35;;
19848;SDS011;10085;51.120;6.956;2022-07-06T13:51:25;5.95;;;1.63;;
19848;SDS011;10085;51.120;6.956;2022-07-06T13:56:30;2.00;;;1.30;;
19848;SDS011;10085;51.120;6.956;2022-07-06T14:01:33;2.60;;;1.30;;
19848;SDS011;10085;51.120;6.956;2022-07-06T14:06:37;1.27;;;1.00;;
19848;SDS011;10085;51.120;6.956;2022-07-06T14:11:40;6.47;;;1.30;;
19848;SDS011;10085;51.120;6.956;2022-07-06T14:16:42;6.20;;;1.40;;
19848;SDS011;10085;51.120;6.956;2022-07-06T14:21:47;2.35;;;1.15;;
19848;SDS011;10085;51.120;6.956;2022-07-06T14:26:50;1.15;;;1.08;;
19848;SDS011;10085;51.120;6.956;2022-07-06T14:31:53;8.50;;;1.05;;
19848;SDS011;10085;51.120;6.956;2022-07-06T14:36:57;2.63;;;1.17;;
19848;SDS011;10085;51.120;6.956;2022-07-06T14:42:00;3.70;;;1.20;;
19848;SDS011;10085;51.120;6.956;2022-07-06T14:47:02;2.95;;;1.10;;
19848;SDS011;10085;51.120;6.956;2022-07-06T14:52:07;1.83;;;1.20;;
19848;SDS011;10085;51.120;6.956;2022-07-06T14:57:11;4.32;;;1.23;;
19848;SDS011;10085;51.120;6.956;2022-07-06T15:02:14;2.17;;;1.38;;
19848;SDS011;10085;51.120;6.956;2022-07-06T15:07:18;3.25;;;1.27;;
19848;SDS011;10085;51.120;6.956;2022-07-06T15:12:21;2.95;;;1.40;;
19848;SDS011;10085;51.120;6.956;2022-07-06T15:17:24;2.28;;;1.13;;
19848;SDS011;10085;51.120;6.956;2022-07-06T15:22:28;5.40;;;1.75;;
19848;SDS011;10085;51.120;6.956;2022-07-06T15:27:30;3.47;;;1.55;;
19848;SDS011;10085;51.120;6.956;2022-07-06T15:32:33;1.77;;;1.30;;
19848;SDS011;10085;51.120;6.956;2022-07-06T15:37:37;1.60;;;1.38;;
19848;SDS011;10085;51.120;6.956;2022-07-06T15:42:40;2.30;;;1.20;;
19848;SDS011;10085;51.120;6.956;2022-07-06T15:47:43;5.32;;;1.40;;
19848;SDS011;10085;51.120;6.956;2022-07-06T15:52:47;1.98;;;1.10;;
19848;SDS011;10085;51.120;6.956;2022-07-06T15:57:49;3.00;;;1.33;;
19848;SDS011;10085;51.120;6.956;2022-07-06T16:02:53;6.25;;;1.40;;
19848;SDS011;10085;51.120;6.956;2022-07-06T16:07:57;1.58;;;1.10;;
19848;SDS011;10085;51.120;6.956;2022-07-06T16:13:20;5.30;;;1.30;;
19848;SDS011;10085;51.120;6.956;2022-07-06T16:18:23;3.10;;;1.30;;
19848;SDS011;10085;51.120;6.956;2022-07-06T16:23:28;3.13;;;1.20;;
19848;SDS011;10085;51.120;6.956;2022-07-06T16:28:31;2.17;;;1.17;;
19848;SDS011;10085;51.120;6.956;2022-07-06T16:33:34;2.88;;;1.05;;
19848;SDS011;10085;51.120;6.956;2022-07-06T16:38:39;1.85;;;1.30;;
19848;SDS011;10085;51.120;6.956;2022-07-06T16:43:42;3.85;;;1.30;;
19848;SDS011;10085;51.120;6.956;2022-07-06T16:48:45;1.67;;;1.08;;
19848;SDS011;10085;51.120;6.956;2022-07-06T16:53:49;1.58;;;1.00;;
19848;SDS011;10085;51.120;6.956;2022-07-06T16:58:52;2.33;;;1.20;;
19848;SDS011;10085;51.120;6.956;2022-07-06T17:04:00;1.67;;;1.17;;
19848;SDS011;10085;51.120;6.956;2022-07-06T17:09:04;1.30;;;1.20;;
19848;SDS011;10085;51.120;6.956;2022-07-06T17:14:07;1.95;;;1.25;;
19848;SDS011;10085;51.120;6.956;2022-07-06T17:19:10;4.35;;;1.45;;
19848;SDS011;10085;51.120;6.956;2022-07-06T17:24:14;3.20;;;1.48;;
19848;SDS011;10085;51.120;6.956;2022-07-06T17:29:17;2.50;;;1.27;;
19848;SDS011;10085;51.120;6.956;2022-07-06T17:34:21;3.70;;;1.40;;
19848;SDS011;10085;51.120;6.956;2022-07-06T17:39:26;6.88;;;1.50;;
19848;SDS011;10085;51.120;6.956;2022-07-06T17:44:28;2.58;;;1.70;;
19848;SDS011;10085;51.120;6.956;2022-07-06T17:49:31;6.05;;;1.58;;
19848;SDS011;10085;51.120;6.956;2022-07-06T17:54:36;3.80;;;1.48;;
19848;SDS011;10085;51.120;6.956;2022-07-06T17:59:39;2.75;;;1.70;;
19848;SDS011;10085;51.120;6.956;2022-07-06T18:04:42;5.13;;;1.70;;
19848;SDS011;10085;51.120;6.956;2022-07-06T18:09:46;4.70;;;1.90;;
19848;SDS011;10085;51.120;6.956;2022-07-06T18:14:49;3.88;;;1.85;;
19848;SDS011;10085;51.120;6.956;2022-07-06T18:19:53;3.30;;;1.40;;
19848;SDS011;10085;51.120;6.956;2022-07-06T18:24:57;2.85;;;1.50;;
19848;SDS011;10085;51.120;6.956;2022-07-06T18:30:00;4.15;;;1.50;;
19848;SDS011;10085;51.120;6.956;2022-07-06T18:35:03;3.15;;;1.48;;
19848;SDS011;10085;51.120;6.956;2022-07-06T18:40:09;4.32;;;1.80;;
19848;SDS011;10085;51.120;6.956;2022-07-06T18:45:12;5.38;;;1.50;;
19848;SDS011;10085;51.120;6.956;2022-07-06T18:50:15;7.88;;;1.60;;
19848;SDS011;10085;51.120;6.956;2022-07-06T18:55:19;4.18;;;1.50;;
19848;SDS011;10085;51.120;6.956;2022-07-06T19:00:22;1.80;;;1.70;;
19848;SDS011;10085;51.120;6.956;2022-07-06T19:05:25;1.73;;;1.52;;
19848;SDS011;10085;51.120;6.956;2022-07-06T19:10:29;3.20;;;1.42;;
19848;SDS011;10085;51.120;6.956;2022-07-06T19:15:32;3.20;;;1.60;;
19848;SDS011;10085;51.120;6.956;2022-07-06T19:20:35;1.70;;;1.50;;
19848;SDS011;10085;51.120;6.956;2022-07-06T19:25:40;3.67;;;1.63;;
19848;SDS011;10085;51.120;6.956;2022-07-06T19:30:43;5.53;;;1.70;;
19848;SDS011;10085;51.120;6.956;2022-07-06T19:35:46;2.13;;;1.50;;
19848;SDS011;10085;51.120;6.956;2022-07-06T19:40:50;3.60;;;1.70;;
19848;SDS011;10085;51.120;6.956;2022-07-06T19:45:53;3.97;;;1.67;;
19848;SDS011;10085;51.120;6.956;2022-07-06T19:50:56;2.92;;;1.80;;
19848;SDS011;10085;51.120;6.956;2022-07-06T19:56:00;3.10;;;1.80;;
19848;SDS011;10085;51.120;6.956;2022-07-06T20:01:03;3.67;;;1.73;;
19848;SDS011;10085;51.120;6.956;2022-07-06T20:06:06;2.63;;;1.85;;
19848;SDS011;10085;51.120;6.956;2022-07-06T20:11:11;3.80;;;1.77;;
19848;SDS011;10085;51.120;6.956;2022-07-06T20:16:14;4.10;;;1.60;;
19848;SDS011;10085;51.120;6.956;2022-07-06T20:21:17;5.65;;;1.95;;
19848;SDS011;10085;51.120;6.956;2022-07-06T20:26:21;6.53;;;1.80;;
19848;SDS011;10085;51.120;6.956;2022-07-06T20:31:23;4.22;;;1.67;;
19848;SDS011;10085;51.120;6.956;2022-07-06T20:36:26;3.92;;;1.70;;
19848;SDS011;10085;51.120;6.956;2022-07-06T20:41:30;4.10;;;1.80;;
19848;SDS011;10085;51.120;6.956;2022-07-06T20:46:33;3.08;;;1.85;;
19848;SDS011;10085;51.120;6.956;2022-07-06T20:51:36;3.65;;;2.00;;
19848;SDS011;10085;51.120;6.956;2022-07-06T20:56:40;6.03;;;1.90;;
19848;SDS011;10085;51.120;6.956;2022-07-06T21:01:43;1.98;;;1.65;;
19848;SDS011;10085;51.120;6.956;2022-07-06T21:06:46;3.40;;;1.85;;
19848;SDS011;10085;51.120;6.956;2022-07-06T21:11:50;3.08;;;1.75;;
19848;SDS011;10085;51.120;6.956;2022-07-06T21:16:54;3.70;;;1.95;;
19848;SDS011;10085;51.120;6.956;2022-07-06T21:21:57;4.57;;;2.00;;
19848;SDS011;10085;51.120;6.956;2022-07-06T21:27:03;2.88;;;1.80;;
19848;SDS011;10085;51.120;6.956;2022-07-06T21:32:07;3.97;;;2.20;;
19848;SDS011;10085;51.120;6.956;2022-07-06T21:37:11;5.00;;;2.00;;
19848;SDS011;10085;51.120;6.956;2022-07-06T21:42:16;3.53;;;2.13;;
19848;SDS011;10085;51.120;6.956;2022-07-06T21:47:19;4.43;;;1.80;;
19848;SDS011;10085;51.120;6.956;2022-07-06T21:52:24;4.03;;;1.80;;
19848;SDS011;10085;51.120;6.956;2022-07-06T21:57:28;4.93;;;1.95;;
19848;SDS011;10085;51.120;6.956;2022-07-06T22:02:31;4.78;;;2.03;;
19848;SDS011;10085;51.120;6.956;2022-07-06T22:07:34;3.70;;;1.90;;
19848;SDS011;10085;51.120;6.956;2022-07-06T22:12:39;1.70;;;1.60;;
19848;SDS011;10085;51.120;6.956;2022-07-06T22:17:42;3.70;;;2.05;;
19848;SDS011;10085;51.120;6.956;2022-07-06T22:22:45;3.05;;;1.80;;
19848;SDS011;10085;51.120;6.956;2022-07-06T22:27:51;2.33;;;1.60;;
19848;SDS011;10085;51.120;6.956;2022-07-06T22:32:54;3.05;;;1.75;;
19848;SDS011;10085;51.120;6.956;2022-07-06T22:37:57;5.18;;;1.98;;
19848;SDS011;10085;51.120;6.956;2022-07-06T22:43:01;3.47;;;1.70;;
19848;SDS011;10085;51.120;6.956;2022-07-06T22:48:04;2.75;;;1.80;;
19848;SDS011;10085;51.120;6.956;2022-07-06T22:53:07;6.63;;;2.20;;
19848;SDS011;10085;51.120;6.956;2022-07-06T22:58:11;9.38;;;2.40;;
19848;SDS011;10085;51.120;6.956;2022-07-06T23:03:14;4.65;;;1.98;;
19848;SDS011;10085;51.120;6.956;2022-07-06T23:08:17;2.38;;;2.00;;
19848;SDS011;10085;51.120;6.956;2022-07-06T23:13:21;4.13;;;2.30;;
19848;SDS011;10085;51.120;6.956;2022-07-06T23:18:24;3.70;;;2.30;;
19848;SDS011;10085;51.120;6.956;2022-07-06T23:23:27;4.15;;;2.30;;
19848;SDS011;10085;51.120;6.956;2022-07-06T23:28:31;6.50;;;3.08;;
19848;SDS011;10085;51.120;6.956;2022-07-06T23:33:34;4.90;;;2.92;;
19848;SDS011;10085;51.120;6.956;2022-07-06T23:38:37;5.85;;;3.00;;
19848;SDS011;10085;51.120;6.956;2022-07-06T23:43:41;7.63;;;2.90;;
19848;SDS011;10085;51.120;6.956;2022-07-06T23:48:44;10.20;;;2.72;;
19848;SDS011;10085;51.120;6.956;2022-07-06T23:53:46;7.68;;;3.10;;
19848;SDS011;10085;51.120;6.956;2022-07-06T23:58:51;10.55;;;3.88;;
